Time;durP1;ratioP1;P1;durP2;ratioP2;P2;SDS_P1;SDS_P2;PMS_P1;PMS_P2;Temp;Humidity;BMP_temperature;BMP_pressure;BME280_temperature;BME280_humidity;BME280_pressure;Samples;Min_cycle;Max_cycle;Signal;HPM_P1;HPM_P2
2022/05/13 00:00:20;;;;;;;2.70;1.90;;;;;;;;;;4394295;32;20152;-73
2022/05/13 00:02:46;;;;;;;3.08;1.80;;;;;;;;;;4394298;32;20513;-75
2022/05/13 00:05:13;;;;;;;2.22;2.00;;;;;;;;;;4394733;32;20164;-72
2022/05/13 00:07:40;;;;;;;2.67;1.95;;;;;;;;;;4369099;32;20174;-72
2022/05/13 00:10:07;;;;;;;3.67;1.67;;;;;;;;;;4394083;32;20085;-73
2022/05/13 00:12:40;;;;;;;2.20;1.90;;;;;;;;;;4394024;32;20156;-74
2022/05/13 00:15:14;;;;;;;2.55;1.75;;;;;;;;;;4408774;32;20077;-73
2022/05/13 00:17:41;;;;;;;2.47;1.95;;;;;;;;;;4382329;32;20093;-73
2022/05/13 00:20:09;;;;;;;3.30;2.17;;;;;;;;;;4381639;32;20085;-73
2022/05/13 00:22:42;;;;;;;2.90;1.65;;;;;;;;;;4394234;32;20144;-74
2022/05/13 00:25:09;;;;;;;2.55;1.90;;;;;;;;;;4394527;32;20156;-73
2022/05/13 00:27:36;;;;;;;2.85;1.87;;;;;;;;;;4408308;32;20188;-74
2022/05/13 00:30:03;;;;;;;1.85;1.70;;;;;;;;;;4381419;32;20528;-74
2022/05/13 00:32:30;;;;;;;2.45;1.73;;;;;;;;;;4408447;32;20084;-74
2022/05/13 00:34:57;;;;;;;2.62;1.83;;;;;;;;;;4393839;32;20124;-73
2022/05/13 00:37:23;;;;;;;2.30;1.58;;;;;;;;;;4408176;32;20174;-74
2022/05/13 00:39:50;;;;;;;1.50;1.40;;;;;;;;;;4394082;32;20140;-74
2022/05/13 00:42:19;;;;;;;2.10;1.60;;;;;;;;;;4407486;32;20169;-73
2022/05/13 00:44:46;;;;;;;1.48;1.37;;;;;;;;;;4381845;32;20073;-74
2022/05/13 00:47:13;;;;;;;3.28;1.60;;;;;;;;;;4407583;32;20096;-73
2022/05/13 00:49:40;;;;;;;1.92;1.50;;;;;;;;;;4393777;32;20097;-73
2022/05/13 00:52:10;;;;;;;2.45;1.80;;;;;;;;;;4394240;32;20180;-73
2022/05/13 00:54:38;;;;;;;2.62;2.00;;;;;;;;;;4394049;32;20158;-73
2022/05/13 00:57:06;;;;;;;1.77;1.52;;;;;;;;;;4408274;32;20077;-73
2022/05/13 00:59:35;;;;;;;2.58;1.40;;;;;;;;;;4393569;32;20074;-74
2022/05/13 01:02:02;;;;;;;2.03;1.70;;;;;;;;;;4393477;32;20139;-75
2022/05/13 01:04:30;;;;;;;2.10;1.52;;;;;;;;;;4407913;32;20602;-73
2022/05/13 01:07:00;;;;;;;2.08;1.62;;;;;;;;;;4393427;32;20104;-73
2022/05/13 01:09:33;;;;;;;3.97;1.83;;;;;;;;;;4380928;32;20069;-73
2022/05/13 01:12:03;;;;;;;2.78;1.48;;;;;;;;;;4381399;32;20161;-74
2022/05/13 01:14:38;;;;;;;2.58;1.52;;;;;;;;;;4393628;32;20066;-73
2022/05/13 01:20:31;;;;;;;3.17;1.90;;;;;;;;;;4331371;33;20086;-73
2022/05/13 01:23:01;;;;;;;2.58;1.70;;;;;;;;;;4392177;32;20472;-74
2022/05/13 01:25:30;;;;;;;2.28;1.90;;;;;;;;;;4393769;32;20156;-73
2022/05/13 01:28:38;;;;;;;2.67;1.80;;;;;;;;;;3834344;37;20489;-73
2022/05/13 01:31:09;;;;;;;2.75;1.95;;;;;;;;;;4365909;32;20081;-72
2022/05/13 01:33:39;;;;;;;2.25;1.83;;;;;;;;;;4390809;32;20082;-73
2022/05/13 01:36:07;;;;;;;1.77;1.58;;;;;;;;;;4390371;32;20096;-73
2022/05/13 01:38:38;;;;;;;2.25;1.50;;;;;;;;;;4390202;32;20101;-73
2022/05/13 01:41:06;;;;;;;2.80;1.80;;;;;;;;;;4377932;32;20512;-74
2022/05/13 01:43:34;;;;;;;2.20;1.50;;;;;;;;;;4404123;32;20181;-74
2022/05/13 01:46:02;;;;;;;2.47;1.58;;;;;;;;;;4377554;32;20105;-74
2022/05/13 01:48:30;;;;;;;2.90;1.90;;;;;;;;;;4390931;32;20182;-72
2022/05/13 01:50:56;;;;;;;2.58;2.03;;;;;;;;;;4390241;32;20104;-72
2022/05/13 01:53:23;;;;;;;3.80;2.30;;;;;;;;;;4404221;32;20521;-73
2022/05/13 01:55:50;;;;;;;2.50;1.65;;;;;;;;;;4377026;32;20571;-73
2022/05/13 01:58:19;;;;;;;2.70;1.80;;;;;;;;;;4365832;32;20192;-73
2022/05/13 02:00:48;;;;;;;3.33;1.80;;;;;;;;;;4377525;32;20152;-74
2022/05/13 02:06:00;;;;;;;2.58;1.75;;;;;;;;;;4392149;32;20496;-74
2022/05/13 02:08:27;;;;;;;1.80;1.70;;;;;;;;;;4377541;32;20584;-73
2022/05/13 02:10:54;;;;;;;1.50;1.37;;;;;;;;;;4377504;32;20077;-74
2022/05/13 02:13:21;;;;;;;2.28;1.80;;;;;;;;;;4365046;32;20164;-73
2022/05/13 02:15:47;;;;;;;3.28;1.75;;;;;;;;;;4390449;32;20152;-73
2022/05/13 02:18:14;;;;;;;2.78;1.90;;;;;;;;;;4390425;32;20161;-74
2022/05/13 02:23:22;;;;;;;2.77;1.73;;;;;;;;;;3831546;37;20073;-74
2022/05/13 02:25:50;;;;;;;1.83;1.58;;;;;;;;;;4391038;32;20093;-73
2022/05/13 02:28:17;;;;;;;3.05;1.52;;;;;;;;;;4404603;32;20160;-74
2022/05/13 02:30:43;;;;;;;1.83;1.58;;;;;;;;;;4390824;32;20085;-74
2022/05/13 02:33:10;;;;;;;3.10;1.80;;;;;;;;;;4378142;32;20600;-74
2022/05/13 02:35:37;;;;;;;3.03;1.98;;;;;;;;;;4389810;32;20100;-74
2022/05/13 02:38:04;;;;;;;3.85;1.70;;;;;;;;;;4378590;32;20061;-73
2022/05/13 02:43:16;;;;;;;3.85;1.62;;;;;;;;;;4390036;32;20452;-73
2022/05/13 02:45:42;;;;;;;2.00;1.50;;;;;;;;;;4377956;32;20608;-73
2022/05/13 02:48:09;;;;;;;2.28;1.75;;;;;;;;;;4377515;32;20085;-73
2022/05/13 02:50:39;;;;;;;2.25;1.60;;;;;;;;;;4390642;32;20177;-74
2022/05/13 02:53:06;;;;;;;2.97;1.40;;;;;;;;;;4390585;32;20086;-73
2022/05/13 02:55:32;;;;;;;3.28;1.85;;;;;;;;;;4390058;32;20193;-73
2022/05/13 02:57:59;;;;;;;2.50;1.90;;;;;;;;;;4378090;32;20166;-73
2022/05/13 03:00:26;;;;;;;2.60;1.80;;;;;;;;;;4389706;32;20535;-73
2022/05/13 03:02:52;;;;;;;1.77;1.50;;;;;;;;;;4390155;32;20081;-73
2022/05/13 03:05:19;;;;;;;2.78;1.52;;;;;;;;;;4389979;32;20149;-74
2022/05/13 03:07:46;;;;;;;2.05;1.70;;;;;;;;;;4403906;32;20089;-74
2022/05/13 03:10:12;;;;;;;2.08;1.70;;;;;;;;;;4403757;32;20156;-72
2022/05/13 03:12:40;;;;;;;2.12;1.65;;;;;;;;;;4377405;32;20520;-73
2022/05/13 03:15:07;;;;;;;4.12;1.75;;;;;;;;;;4389632;32;20588;-73
2022/05/13 03:17:35;;;;;;;3.87;1.87;;;;;;;;;;4377479;32;20109;-74
2022/05/13 03:20:06;;;;;;;2.35;1.67;;;;;;;;;;4389608;32;20152;-72
2022/05/13 03:22:33;;;;;;;2.15;1.58;;;;;;;;;;4389532;32;20157;-73
2022/05/13 03:25:00;;;;;;;2.37;1.40;;;;;;;;;;4377159;32;20066;-73
2022/05/13 03:27:28;;;;;;;1.73;1.40;;;;;;;;;;4403826;32;20166;-73
2022/05/13 03:29:54;;;;;;;2.65;1.70;;;;;;;;;;4377132;32;20636;-72
2022/05/13 03:32:21;;;;;;;3.03;1.70;;;;;;;;;;4390145;32;20149;-73
2022/05/13 03:34:48;;;;;;;1.75;1.48;;;;;;;;;;4394226;32;20172;-73
2022/05/13 03:37:14;;;;;;;1.70;1.60;;;;;;;;;;4382118;32;20090;-72
2022/05/13 03:39:41;;;;;;;1.35;1.25;;;;;;;;;;4379521;32;20077;-74
2022/05/13 03:42:09;;;;;;;1.90;1.55;;;;;;;;;;4379383;32;20510;-71
2022/05/13 03:44:39;;;;;;;1.95;1.58;;;;;;;;;;4393309;32;20162;-73
2022/05/13 03:47:06;;;;;;;2.83;1.30;;;;;;;;;;4380021;32;20093;-72
2022/05/13 03:49:33;;;;;;;3.20;1.90;;;;;;;;;;4393589;32;20207;-73
2022/05/13 03:51:59;;;;;;;2.03;1.75;;;;;;;;;;4367188;32;20081;-74
2022/05/13 03:54:26;;;;;;;3.58;1.90;;;;;;;;;;4354843;32;20181;-73
2022/05/13 03:56:53;;;;;;;2.05;1.85;;;;;;;;;;4379416;32;20149;-74
2022/05/13 03:59:19;;;;;;;1.70;1.60;;;;;;;;;;4379784;32;20083;-73
2022/05/13 04:01:46;;;;;;;3.08;2.05;;;;;;;;;;4366907;32;20100;-73
2022/05/13 04:04:14;;;;;;;4.18;2.20;;;;;;;;;;4379397;32;20125;-72
2022/05/13 04:09:26;;;;;;;2.33;1.85;;;;;;;;;;4393296;32;20077;-73
2022/05/13 04:17:23;;;;;;;2.45;1.80;;;;;;;;;;4368549;32;20085;-73
2022/05/13 04:19:50;;;;;;;3.30;1.90;;;;;;;;;;4378902;32;20105;-74
2022/05/13 04:22:16;;;;;;;2.62;2.10;;;;;;;;;;4378546;32;20157;-75
2022/05/13 04:24:43;;;;;;;3.45;1.87;;;;;;;;;;4393277;32;20081;-73
2022/05/13 04:27:09;;;;;;;2.25;2.00;;;;;;;;;;4366275;32;20516;-73
2022/05/13 04:29:37;;;;;;;3.20;1.60;;;;;;;;;;4378656;32;20133;-74
2022/05/13 04:32:04;;;;;;;2.65;2.00;;;;;;;;;;4378488;32;20058;-73
2022/05/13 04:34:31;;;;;;;2.75;1.87;;;;;;;;;;4378818;32;20082;-73
2022/05/13 04:36:57;;;;;;;2.95;2.15;;;;;;;;;;4392773;32;20504;-74
2022/05/13 04:39:24;;;;;;;3.42;2.22;;;;;;;;;;4378678;32;20101;-73
2022/05/13 04:44:36;;;;;;;2.75;2.10;;;;;;;;;;4367841;32;20082;-73
2022/05/13 04:47:03;;;;;;;2.72;1.80;;;;;;;;;;4392095;32;20397;-73
2022/05/13 04:49:29;;;;;;;3.08;2.08;;;;;;;;;;4378291;32;20077;-72
2022/05/13 04:51:56;;;;;;;4.00;2.17;;;;;;;;;;4378145;32;20077;-73
2022/05/13 04:54:23;;;;;;;3.15;1.92;;;;;;;;;;4378346;32;20082;-73
2022/05/13 04:56:49;;;;;;;2.75;2.10;;;;;;;;;;4378572;32;20171;-73
2022/05/13 04:59:16;;;;;;;2.67;1.98;;;;;;;;;;4378028;32;20142;-74
2022/05/13 05:01:43;;;;;;;3.17;2.15;;;;;;;;;;4392602;32;20155;-73
2022/05/13 05:04:09;;;;;;;3.08;2.05;;;;;;;;;;4365729;32;20137;-72
2022/05/13 05:06:36;;;;;;;2.80;2.05;;;;;;;;;;4365842;32;20166;-73
2022/05/13 05:09:03;;;;;;;2.37;1.87;;;;;;;;;;4353143;32;20066;-73
2022/05/13 05:11:30;;;;;;;3.20;1.95;;;;;;;;;;4391800;32;20097;-73
2022/05/13 05:13:56;;;;;;;4.37;2.45;;;;;;;;;;4365446;32;20090;-73
2022/05/13 05:16:23;;;;;;;2.90;2.20;;;;;;;;;;4392282;32;20066;-73
2022/05/13 05:18:50;;;;;;;3.33;2.60;;;;;;;;;;4377923;32;20077;-72
2022/05/13 05:21:16;;;;;;;4.72;2.67;;;;;;;;;;4352823;32;20081;-72
2022/05/13 05:23:44;;;;;;;2.90;1.90;;;;;;;;;;4365976;32;20066;-72
2022/05/13 05:26:11;;;;;;;4.10;2.47;;;;;;;;;;4365079;32;20174;-73
2022/05/13 05:28:38;;;;;;;5.15;3.22;;;;;;;;;;4365557;32;20092;-73
2022/05/13 05:31:06;;;;;;;2.90;2.22;;;;;;;;;;4365250;32;20437;-73
2022/05/13 05:33:32;;;;;;;3.95;2.50;;;;;;;;;;4378094;32;20429;-73
2022/05/13 05:35:59;;;;;;;4.57;2.65;;;;;;;;;;4377758;32;20081;-72
2022/05/13 05:38:26;;;;;;;4.35;2.58;;;;;;;;;;4377804;32;20073;-72
2022/05/13 05:40:53;;;;;;;4.10;2.62;;;;;;;;;;4352819;32;20160;-72
2022/05/13 05:43:21;;;;;;;5.07;2.50;;;;;;;;;;4365127;32;20100;-73
2022/05/13 05:45:48;;;;;;;4.35;2.70;;;;;;;;;;4365789;32;20556;-72
2022/05/13 05:48:21;;;;;;;5.15;2.95;;;;;;;;;;4366064;32;20157;-72
2022/05/13 05:50:51;;;;;;;4.68;2.85;;;;;;;;;;4385491;32;20062;-72
2022/05/13 05:58:50;;;;;;;4.97;3.10;;;;;;;;;;4380143;32;20082;-73
2022/05/13 06:01:16;;;;;;;4.90;3.20;;;;;;;;;;4391035;32;20093;-72
2022/05/13 06:03:43;;;;;;;6.53;3.50;;;;;;;;;;4377086;32;20124;-73
2022/05/13 06:06:12;;;;;;;6.55;3.17;;;;;;;;;;4377311;32;20145;-72
2022/05/13 06:08:39;;;;;;;6.87;3.20;;;;;;;;;;4377584;32;20166;-72
2022/05/13 06:11:07;;;;;;;5.47;3.40;;;;;;;;;;4391311;32;20086;-72
2022/05/13 06:13:33;;;;;;;5.72;3.58;;;;;;;;;;4364566;32;20066;-71
2022/05/13 06:16:00;;;;;;;7.22;3.67;;;;;;;;;;4365462;32;20098;-72
2022/05/13 06:18:27;;;;;;;6.85;3.47;;;;;;;;;;4364659;32;20086;-72
2022/05/13 06:20:54;;;;;;;6.18;3.90;;;;;;;;;;4377337;32;20157;-72
2022/05/13 06:23:20;;;;;;;5.53;3.70;;;;;;;;;;4352499;32;20162;-73
2022/05/13 06:25:47;;;;;;;7.20;4.05;;;;;;;;;;4365301;32;20066;-73
2022/05/13 06:28:14;;;;;;;5.72;3.83;;;;;;;;;;4364701;32;20173;-73
2022/05/13 06:30:41;;;;;;;5.82;3.80;;;;;;;;;;4364520;32;20161;-72
2022/05/13 06:33:07;;;;;;;7.20;4.07;;;;;;;;;;4352045;32;20150;-72
2022/05/13 06:35:35;;;;;;;8.52;4.00;;;;;;;;;;4377716;32;20089;-72
2022/05/13 06:38:02;;;;;;;6.37;3.90;;;;;;;;;;4364573;32;20158;-72
2022/05/13 06:40:29;;;;;;;9.32;5.12;;;;;;;;;;4364345;32;20100;-72
2022/05/13 06:42:55;;;;;;;6.62;4.55;;;;;;;;;;4364577;32;20125;-72
2022/05/13 06:45:22;;;;;;;7.43;4.78;;;;;;;;;;4364356;32;20165;-72
2022/05/13 06:47:49;;;;;;;6.80;4.35;;;;;;;;;;4364862;32;20097;-72
2022/05/13 06:50:17;;;;;;;6.68;4.28;;;;;;;;;;4352987;32;20082;-72
2022/05/13 06:52:45;;;;;;;7.55;4.50;;;;;;;;;;4364772;32;20088;-73
2022/05/13 06:55:14;;;;;;;7.78;4.35;;;;;;;;;;4377558;32;20522;-73
2022/05/13 06:57:40;;;;;;;9.43;4.62;;;;;;;;;;4364478;32;20082;-72
2022/05/13 07:00:08;;;;;;;8.57;4.82;;;;;;;;;;4377271;32;20090;-72
2022/05/13 07:02:35;;;;;;;5.95;4.25;;;;;;;;;;4364584;32;20085;-72
2022/05/13 07:05:05;;;;;;;8.07;4.32;;;;;;;;;;4351703;32;20084;-73
2022/05/13 07:07:31;;;;;;;6.57;4.57;;;;;;;;;;4364488;32;20093;-72
2022/05/13 07:09:58;;;;;;;9.50;5.00;;;;;;;;;;4367060;32;20504;-72
2022/05/13 07:12:25;;;;;;;9.27;4.97;;;;;;;;;;4367197;32;20117;-72
2022/05/13 07:14:53;;;;;;;8.45;5.12;;;;;;;;;;4379590;32;20070;-72
2022/05/13 07:17:21;;;;;;;7.68;5.12;;;;;;;;;;4355096;32;20178;-72
2022/05/13 07:19:48;;;;;;;9.07;4.68;;;;;;;;;;4379596;32;20513;-73
2022/05/13 07:22:14;;;;;;;7.57;4.85;;;;;;;;;;4379334;32;20081;-73
2022/05/13 07:24:41;;;;;;;7.22;4.97;;;;;;;;;;4366880;32;20089;-72
2022/05/13 07:27:08;;;;;;;9.73;5.10;;;;;;;;;;4379231;32;20061;-71
2022/05/13 07:29:35;;;;;;;9.13;5.57;;;;;;;;;;4366901;32;20577;-72
2022/05/13 07:32:01;;;;;;;13.52;5.00;;;;;;;;;;4379328;32;20077;-72
2022/05/13 07:34:28;;;;;;;8.27;4.72;;;;;;;;;;4354185;32;20093;-73
2022/05/13 07:36:56;;;;;;;8.68;5.62;;;;;;;;;;4367050;32;20551;-73
2022/05/13 07:42:12;;;;;;;8.63;5.10;;;;;;;;;;4381308;32;20456;-72
2022/05/13 07:44:39;;;;;;;9.70;5.25;;;;;;;;;;4378968;32;20074;-72
2022/05/13 07:47:07;;;;;;;7.45;5.50;;;;;;;;;;4379771;32;20102;-73
2022/05/13 07:49:34;;;;;;;8.10;5.65;;;;;;;;;;4367234;32;20078;-73
2022/05/13 07:52:02;;;;;;;6.87;4.85;;;;;;;;;;4354137;32;20173;-72
2022/05/13 07:54:28;;;;;;;7.82;5.32;;;;;;;;;;4392910;32;20077;-72
2022/05/13 07:56:56;;;;;;;8.38;5.57;;;;;;;;;;4379006;32;20453;-72
2022/05/13 07:59:22;;;;;;;7.25;5.10;;;;;;;;;;4379561;32;20604;-72
2022/05/13 08:01:49;;;;;;;7.55;4.70;;;;;;;;;;4384030;32;20081;-73
2022/05/13 08:04:16;;;;;;;8.65;5.50;;;;;;;;;;4355187;32;20085;-72
2022/05/13 08:06:44;;;;;;;9.93;5.05;;;;;;;;;;4354348;32;20137;-71
2022/05/13 08:09:12;;;;;;;7.43;5.60;;;;;;;;;;4378734;32;20093;-72
2022/05/13 08:11:38;;;;;;;9.43;5.37;;;;;;;;;;4379103;32;20088;-72
2022/05/13 08:14:05;;;;;;;7.55;5.40;;;;;;;;;;4393111;32;20532;-72
2022/05/13 08:16:33;;;;;;;8.45;5.68;;;;;;;;;;4366569;32;20084;-73
2022/05/13 08:19:02;;;;;;;17.52;4.90;;;;;;;;;;4378623;32;20078;-74
2022/05/13 08:21:29;;;;;;;8.40;5.55;;;;;;;;;;4392325;32;20142;-72
2022/05/13 08:23:55;;;;;;;8.68;5.20;;;;;;;;;;4366193;32;20483;-73
2022/05/13 08:26:22;;;;;;;8.13;5.35;;;;;;;;;;4392572;32;20082;-73
2022/05/13 08:28:49;;;;;;;7.80;5.03;;;;;;;;;;4378982;32;20138;-73
2022/05/13 08:31:15;;;;;;;8.48;5.15;;;;;;;;;;4366288;32;20149;-73
2022/05/13 08:33:42;;;;;;;7.30;4.87;;;;;;;;;;4378760;32;20272;-74
2022/05/13 08:36:09;;;;;;;9.55;5.55;;;;;;;;;;4366705;32;20078;-73
2022/05/13 08:38:40;;;;;;;7.25;4.93;;;;;;;;;;4392766;32;20149;-72
2022/05/13 08:41:10;;;;;;;7.68;5.30;;;;;;;;;;4366291;32;20588;-72
2022/05/13 08:43:47;;;;;;;10.85;5.60;;;;;;;;;;4366044;32;20070;-73
2022/05/13 08:46:17;;;;;;;7.57;5.00;;;;;;;;;;4366505;32;20058;-72
2022/05/13 08:49:24;;;;;;;11.98;5.70;;;;;;;;;;4378533;32;20531;-73
2022/05/13 08:53:06;;;;;;;9.32;5.22;;;;;;;;;;4378578;32;20075;-73
2022/05/13 08:54:54;;;;;;;7.80;4.97;;;;;;;;;;4392501;32;20148;-73
2022/05/13 08:57:21;;;;;;;8.85;5.00;;;;;;;;;;4366457;32;20090;-74
2022/05/13 09:00:13;;;;;;;9.13;5.10;;;;;;;;;;4366618;32;20086;-73
2022/05/13 09:02:41;;;;;;;7.32;4.72;;;;;;;;;;4365609;32;20074;-73
2022/05/13 09:05:30;;;;;;;6.75;4.82;;;;;;;;;;4352976;32;20105;-72
2022/05/13 09:07:57;;;;;;;7.37;4.65;;;;;;;;;;4378047;32;20086;-73
2022/05/13 09:10:24;;;;;;;7.43;4.55;;;;;;;;;;4365286;32;20137;-74
2022/05/13 09:13:12;;;;;;;4.60;3.53;;;;;;;;;;4378258;32;20084;-73
2022/05/13 09:15:49;;;;;;;6.85;4.40;;;;;;;;;;4378139;32;20077;-73
2022/05/13 09:18:23;;;;;;;4.75;2.55;;;;;;;;;;4353056;32;20070;-74
2022/05/13 09:20:58;;;;;;;6.78;3.20;;;;;;;;;;4377953;32;20078;-72
2022/05/13 09:23:25;;;;;;;4.45;2.80;;;;;;;;;;4352365;32;20096;-72
2022/05/13 09:25:58;;;;;;;4.75;2.95;;;;;;;;;;4353061;32;20077;-73
2022/05/13 09:28:26;;;;;;;5.30;2.75;;;;;;;;;;4378096;32;20174;-71
2022/05/13 09:31:00;;;;;;;3.45;2.55;;;;;;;;;;4378387;32;20502;-74
2022/05/13 09:33:30;;;;;;;4.30;2.90;;;;;;;;;;4366188;32;20432;-72
2022/05/13 09:36:00;;;;;;;3.37;2.53;;;;;;;;;;4377944;32;20073;-73
2022/05/13 09:38:32;;;;;;;5.57;2.70;;;;;;;;;;4365450;32;20074;-72
2022/05/13 09:41:08;;;;;;;3.12;2.33;;;;;;;;;;4377711;32;20089;-73
2022/05/13 09:43:55;;;;;;;3.87;2.85;;;;;;;;;;4364965;32;20490;-72
2022/05/13 09:46:33;;;;;;;5.82;2.72;;;;;;;;;;4365355;32;20081;-73
2022/05/13 09:49:10;;;;;;;3.50;2.30;;;;;;;;;;4377935;32;20087;-72
2022/05/13 09:51:39;;;;;;;3.67;2.58;;;;;;;;;;4377946;32;20166;-72
2022/05/13 09:54:15;;;;;;;5.07;3.00;;;;;;;;;;4365507;32;20100;-72
2022/05/13 09:56:48;;;;;;;3.47;2.50;;;;;;;;;;4352473;32;20077;-72
2022/05/13 09:59:20;;;;;;;4.72;2.60;;;;;;;;;;4377325;32;20244;-72
2022/05/13 10:01:48;;;;;;;3.35;2.42;;;;;;;;;;4377651;32;20576;-73
2022/05/13 10:04:21;;;;;;;3.03;2.28;;;;;;;;;;4376806;32;20101;-72
2022/05/13 10:06:49;;;;;;;3.42;2.30;;;;;;;;;;4364482;32;20090;-73
2022/05/13 10:15:31;;;;;;;3.28;2.67;;;;;;;;;;4394441;32;20257;-73
2022/05/13 10:18:03;;;;;;;3.08;2.10;;;;;;;;;;4364915;32;20137;-73
2022/05/13 10:20:37;;;;;;;3.47;2.50;;;;;;;;;;4377153;32;20069;-73
2022/05/13 10:23:19;;;;;;;3.15;2.35;;;;;;;;;;4376702;32;20090;-73
2022/05/13 10:26:02;;;;;;;3.40;2.58;;;;;;;;;;4369698;32;20193;-71
2022/05/13 10:28:44;;;;;;;4.72;2.30;;;;;;;;;;4344077;32;20507;-72
2022/05/13 10:31:15;;;;;;;2.15;1.90;;;;;;;;;;4349169;32;20489;-72
2022/05/13 10:33:47;;;;;;;5.75;2.50;;;;;;;;;;4360526;32;20200;-71
2022/05/13 10:36:21;;;;;;;5.62;2.42;;;;;;;;;;4361049;32;20177;-73
2022/05/13 10:39:06;;;;;;;3.47;2.50;;;;;;;;;;4348822;32;20085;-72
2022/05/13 10:41:47;;;;;;;3.97;2.55;;;;;;;;;;4348315;32;20078;-76
2022/05/13 10:44:25;;;;;;;3.80;2.47;;;;;;;;;;4384672;32;20420;-64
2022/05/13 10:47:05;;;;;;;3.37;2.25;;;;;;;;;;4378328;32;20097;-73
2022/05/13 10:49:34;;;;;;;3.53;2.10;;;;;;;;;;4377946;32;20108;-75
2022/05/13 10:52:35;;;;;;;3.60;2.37;;;;;;;;;;4378866;32;20166;-73
2022/05/13 10:55:13;;;;;;;2.03;1.48;;;;;;;;;;4367230;32;20644;-74
2022/05/13 10:58:05;;;;;;;3.35;2.20;;;;;;;;;;4378853;32;20121;-72
2022/05/13 11:00:34;;;;;;;2.35;1.50;;;;;;;;;;4393239;32;20469;-74
2022/05/13 11:03:16;;;;;;;2.20;1.62;;;;;;;;;;4393918;32;20074;-75
2022/05/13 11:05:51;;;;;;;3.60;2.12;;;;;;;;;;4393777;32;20480;-74
2022/05/13 11:08:29;;;;;;;4.45;2.03;;;;;;;;;;4393555;32;20147;-74
2022/05/13 11:11:13;;;;;;;3.37;2.35;;;;;;;;;;4393639;32;20563;-72
2022/05/13 11:13:59;;;;;;;2.30;1.70;;;;;;;;;;4366948;32;20069;-74
2022/05/13 11:16:58;;;;;;;2.90;2.12;;;;;;;;;;4380286;32;20098;-72
2022/05/13 11:19:37;;;;;;;3.40;2.40;;;;;;;;;;4380364;32;20238;-72
2022/05/13 11:22:30;;;;;;;10.00;5.47;;;;;;;;;;4350184;32;20078;-75
2022/05/13 11:28:34;;;;;;;5.40;2.60;;;;;;;;;;4385216;32;20095;-75
2022/05/13 11:31:17;;;;;;;3.12;2.15;;;;;;;;;;4352627;32;20484;-73
2022/05/13 11:33:56;;;;;;;3.55;2.53;;;;;;;;;;4350914;32;20062;-70
2022/05/13 11:36:53;;;;;;;5.18;2.08;;;;;;;;;;4378508;32;20072;-73
2022/05/13 11:39:42;;;;;;;2.28;2.00;;;;;;;;;;4371680;32;20085;-70
2022/05/13 11:42:14;;;;;;;3.42;2.28;;;;;;;;;;4364406;32;20074;-70
2022/05/13 11:45:16;;;;;;;2.87;2.00;;;;;;;;;;4376849;32;20096;-73
2022/05/13 11:47:56;;;;;;;4.07;2.62;;;;;;;;;;4348916;32;20162;-67
2022/05/13 11:50:28;;;;;;;5.95;2.58;;;;;;;;;;4381691;32;20074;-68
2022/05/13 11:52:56;;;;;;;5.70;2.78;;;;;;;;;;4379157;32;20109;-69
2022/05/13 11:55:45;;;;;;;3.97;2.22;;;;;;;;;;4378841;32;20078;-72
2022/05/13 11:58:50;;;;;;;3.40;2.42;;;;;;;;;;4366806;32;20074;-71
2022/05/13 12:01:43;;;;;;;5.40;2.30;;;;;;;;;;4379063;32;20081;-71
2022/05/13 12:04:18;;;;;;;4.15;2.50;;;;;;;;;;4371622;32;20078;-73
2022/05/13 12:06:51;;;;;;;4.35;2.60;;;;;;;;;;4372110;32;20104;-72
2022/05/13 12:09:35;;;;;;;4.25;2.22;;;;;;;;;;4384371;32;20120;-70
2022/05/13 12:12:29;;;;;;;4.43;2.33;;;;;;;;;;4369319;32;20073;-67
2022/05/13 12:15:27;;;;;;;3.78;2.17;;;;;;;;;;4377867;32;20616;-72
2022/05/13 12:18:20;;;;;;;3.50;2.12;;;;;;;;;;4372011;32;20070;-75
2022/05/13 12:21:12;;;;;;;3.92;2.00;;;;;;;;;;4365502;32;20523;-70
2022/05/13 12:23:48;;;;;;;4.53;1.80;;;;;;;;;;4377760;32;20073;-69
2022/05/13 12:26:14;;;;;;;3.05;2.12;;;;;;;;;;4366920;32;20518;-70
2022/05/13 12:29:02;;;;;;;4.85;2.15;;;;;;;;;;4367704;32;20211;-71
2022/05/13 12:31:46;;;;;;;2.83;2.03;;;;;;;;;;4369991;32;20124;-69
2022/05/13 12:39:59;;;;;;;;;;;;;;;;;;4353497;32;20094;-71
2022/05/13 12:42:44;;;;;;;2.70;2.10;;;;;;;;;;4377390;32;20055;-71
2022/05/13 12:45:18;;;;;;;2.58;2.25;;;;;;;;;;4363276;32;20058;-71
2022/05/13 12:48:08;;;;;;;4.72;2.50;;;;;;;;;;4361929;32;20050;-73
2022/05/13 12:51:13;;;;;;;3.05;2.30;;;;;;;;;;4363300;32;20137;-77
2022/05/13 12:53:53;;;;;;;7.12;2.78;;;;;;;;;;4376078;32;20082;-72
2022/05/13 12:56:26;;;;;;;3.90;2.90;;;;;;;;;;4350949;32;20074;-73
2022/05/13 12:59:18;;;;;;;5.03;3.35;;;;;;;;;;4362146;32;20609;-70
2022/05/13 13:01:47;;;;;;;6.25;4.22;;;;;;;;;;4363696;32;20073;-72
2022/05/13 13:04:17;;;;;;;6.07;4.07;;;;;;;;;;4363340;32;20066;-73
2022/05/13 13:06:46;;;;;;;6.12;3.97;;;;;;;;;;4350040;32;20070;-75
2022/05/13 13:09:35;;;;;;;4.32;2.92;;;;;;;;;;4380052;32;20188;-69
2022/05/13 13:12:18;;;;;;;1.65;1.55;;;;;;;;;;4391900;32;20082;-71
2022/05/13 13:15:00;;;;;;;2.92;2.17;;;;;;;;;;4365576;32;20516;-68
2022/05/13 13:17:28;;;;;;;2.83;1.87;;;;;;;;;;4353276;32;20129;-68
2022/05/13 13:20:00;;;;;;;2.10;1.90;;;;;;;;;;4359431;32;20154;-65
2022/05/13 13:22:32;;;;;;;2.10;1.90;;;;;;;;;;4362868;32;20082;-69
2022/05/13 13:24:58;;;;;;;2.35;1.98;;;;;;;;;;4366140;32;20082;-65
2022/05/13 13:27:30;;;;;;;2.15;1.80;;;;;;;;;;4369299;32;20165;-65
2022/05/13 13:29:58;;;;;;;2.00;1.62;;;;;;;;;;4356975;32;20097;-66
2022/05/13 13:32:26;;;;;;;2.10;1.55;;;;;;;;;;4367219;32;20129;-65
2022/05/13 13:34:52;;;;;;;2.37;1.60;;;;;;;;;;4363193;32;20069;-64
2022/05/13 13:37:26;;;;;;;1.80;1.50;;;;;;;;;;4377563;32;20085;-66
2022/05/13 13:39:53;;;;;;;2.55;1.98;;;;;;;;;;4365284;32;20139;-67
2022/05/13 13:42:20;;;;;;;3.65;2.60;;;;;;;;;;4365433;32;20085;-65
2022/05/13 13:45:03;;;;;;;2.70;1.98;;;;;;;;;;4365072;32;20543;-65
2022/05/13 13:48:00;;;;;;;2.40;1.80;;;;;;;;;;4352603;32;20085;-65
2022/05/13 13:50:30;;;;;;;3.37;2.00;;;;;;;;;;4375142;32;20096;-66
2022/05/13 13:52:57;;;;;;;3.33;2.45;;;;;;;;;;4377876;32;20153;-64
2022/05/13 13:55:38;;;;;;;2.58;2.15;;;;;;;;;;4352729;32;20162;-65
2022/05/13 13:58:26;;;;;;;4.32;2.50;;;;;;;;;;4365135;32;20073;-65
2022/05/13 14:00:53;;;;;;;4.80;2.40;;;;;;;;;;4377441;32;20097;-64
2022/05/13 14:03:24;;;;;;;2.97;1.37;;;;;;;;;;4365089;32;20100;-64
2022/05/13 14:05:54;;;;;;;3.08;2.17;;;;;;;;;;4352378;32;20073;-64
2022/05/13 14:08:23;;;;;;;4.12;2.45;;;;;;;;;;4365055;32;20089;-64
2022/05/13 14:10:59;;;;;;;1.92;1.23;;;;;;;;;;4365143;32;20105;-64
2022/05/13 14:13:47;;;;;;;3.10;2.20;;;;;;;;;;4391383;32;20065;-64
2022/05/13 14:16:17;;;;;;;3.30;1.90;;;;;;;;;;4377348;32;20096;-63
2022/05/13 14:18:45;;;;;;;2.10;1.83;;;;;;;;;;4364886;32;20070;-64
2022/05/13 14:21:16;;;;;;;3.90;2.25;;;;;;;;;;4353360;32;20117;-66
2022/05/13 14:23:44;;;;;;;2.70;2.15;;;;;;;;;;4355387;32;20073;-68
2022/05/13 14:26:11;;;;;;;3.80;2.00;;;;;;;;;;4362558;32;20073;-69
2022/05/13 14:28:46;;;;;;;3.15;2.30;;;;;;;;;;4365568;32;20097;-69
2022/05/13 14:31:17;;;;;;;4.28;2.53;;;;;;;;;;4377545;32;20150;-73
2022/05/13 14:33:53;;;;;;;4.20;2.28;;;;;;;;;;4365196;32;20157;-71
2022/05/13 14:36:22;;;;;;;3.28;2.60;;;;;;;;;;4365191;32;20150;-72
2022/05/13 14:41:44;;;;;;;3.78;2.70;;;;;;;;;;4372267;32;20101;-76
2022/05/13 14:44:12;;;;;;;3.30;2.20;;;;;;;;;;4353475;32;20098;-75
2022/05/13 14:46:39;;;;;;;3.10;2.05;;;;;;;;;;4350859;32;20104;-77
2022/05/13 14:49:31;;;;;;;3.28;2.50;;;;;;;;;;4362227;32;20089;-77
2022/05/13 14:51:58;;;;;;;4.65;2.58;;;;;;;;;;4376459;32;20466;-76
2022/05/13 14:54:26;;;;;;;5.07;2.40;;;;;;;;;;4362411;32;20082;-78
2022/05/13 14:57:04;;;;;;;3.12;1.70;;;;;;;;;;4375998;32;20536;-74
2022/05/13 14:59:43;;;;;;;8.77;2.55;;;;;;;;;;4337385;32;20082;-77
2022/05/13 15:02:13;;;;;;;3.08;2.03;;;;;;;;;;4337368;32;20175;-76
2022/05/13 15:04:53;;;;;;;2.85;2.08;;;;;;;;;;4349630;32;20078;-76
2022/05/13 15:07:39;;;;;;;4.83;2.20;;;;;;;;;;3857506;37;20465;-79
2022/05/13 15:10:11;;;;;;;5.03;2.28;;;;;;;;;;4406359;32;20674;-69
2022/05/13 15:12:38;;;;;;;8.15;2.70;;;;;;;;;;4405780;32;20075;-64
2022/05/13 15:15:06;;;;;;;5.00;2.70;;;;;;;;;;4403787;32;20101;-67
2022/05/13 15:17:55;;;;;;;6.60;2.95;;;;;;;;;;4415399;32;20576;-67
2022/05/13 15:20:24;;;;;;;5.55;2.85;;;;;;;;;;4389822;32;20093;-66
2022/05/13 15:22:51;;;;;;;4.37;2.62;;;;;;;;;;4416602;32;20220;-66
2022/05/13 15:25:20;;;;;;;3.78;2.60;;;;;;;;;;4415362;32;20101;-69
2022/05/13 15:27:48;;;;;;;3.95;2.50;;;;;;;;;;4402504;32;20394;-66
2022/05/13 15:30:15;;;;;;;6.15;3.05;;;;;;;;;;4415347;32;20104;-69
2022/05/13 15:32:42;;;;;;;7.47;3.25;;;;;;;;;;4405405;32;20511;-68
2022/05/13 15:35:09;;;;;;;4.10;2.65;;;;;;;;;;4419277;32;20557;-67
2022/05/13 15:37:37;;;;;;;5.78;3.17;;;;;;;;;;4405074;32;20507;-67
2022/05/13 15:40:07;;;;;;;4.57;2.60;;;;;;;;;;4419348;32;20164;-66
2022/05/13 15:42:34;;;;;;;3.53;2.50;;;;;;;;;;4417791;32;20069;-68
2022/05/13 15:45:03;;;;;;;4.05;2.35;;;;;;;;;;4417731;32;20074;-67
2022/05/13 15:47:31;;;;;;;4.35;2.37;;;;;;;;;;4404917;32;20080;-67
2022/05/13 15:52:44;;;;;;;4.30;2.60;;;;;;;;;;4417982;32;20102;-68
2022/05/13 15:55:15;;;;;;;4.25;2.78;;;;;;;;;;4417525;32;20173;-67
2022/05/13 15:58:03;;;;;;;5.87;3.22;;;;;;;;;;4418135;32;20089;-67
2022/05/13 16:00:30;;;;;;;3.67;2.50;;;;;;;;;;4405151;32;20069;-67